Time;durP1;ratioP1;P1;durP2;ratioP2;P2;SDS_P1;SDS_P2;PMS_P1;PMS_P2;Temp;Humidity;BMP_temperature;BMP_pressure;BME280_temperature;BME280_humidity;BME280_pressure;Samples;Min_cycle;Max_cycle;Signal;HPM_P1;HPM_P2
2022/08/06 00:01:52;;;;;;;3.70;1.60;;;13.60;99.90;;;;;;4836203;29;37938;-86
2022/08/06 00:04:21;;;;;;;4.97;1.52;;;13.50;99.90;;;;;;4854280;29;38913;-86
2022/08/06 00:06:47;;;;;;;4.65;1.73;;;13.50;99.90;;;;;;4863718;29;37258;-84
2022/08/06 00:09:13;;;;;;;4.82;1.90;;;13.40;99.90;;;;;;4851485;29;38101;-80
2022/08/06 00:11:40;;;;;;;4.60;1.95;;;13.40;99.90;;;;;;4866573;29;39972;-85
2022/08/06 00:14:07;;;;;;;5.68;2.25;;;13.40;99.90;;;;;;4860748;29;38256;-85
2022/08/06 00:16:34;;;;;;;5.38;1.75;;;13.40;99.90;;;;;;4847926;29;36318;-85
2022/08/06 00:19:00;;;;;;;5.30;2.00;;;13.40;99.90;;;;;;4847099;29;38573;-86
2022/08/06 00:21:26;;;;;;;4.95;2.00;;;13.40;99.90;;;;;;4844804;29;37544;-87
2022/08/06 00:23:52;;;;;;;5.93;1.75;;;13.40;99.90;;;;;;4841395;29;36075;-86
2022/08/06 00:26:18;;;;;;;5.40;2.42;;;13.40;99.90;;;;;;4846265;29;36378;-84
2022/08/06 00:28:44;;;;;;;5.10;1.80;;;13.40;99.90;;;;;;4856548;29;38902;-86
2022/08/06 00:31:11;;;;;;;4.80;2.30;;;13.30;99.90;;;;;;4844600;29;37751;-84
2022/08/06 00:33:39;;;;;;;7.65;2.60;;;13.30;99.90;;;;;;4843757;29;38956;-85
2022/08/06 00:36:05;;;;;;;3.65;2.42;;;13.30;99.90;;;;;;4837250;29;36555;-84
2022/08/06 00:38:31;;;;;;;5.10;3.03;;;13.20;99.90;;;;;;4844529;29;39778;-85
2022/08/06 00:40:58;;;;;;;5.75;2.40;;;13.30;99.90;;;;;;4820911;29;39258;-85
2022/08/06 00:43:24;;;;;;;5.43;2.30;;;13.20;99.90;;;;;;4819118;29;37947;-86
2022/08/06 00:45:51;;;;;;;6.75;2.47;;;13.20;99.90;;;;;;4827418;29;36165;-85
2022/08/06 00:48:17;;;;;;;5.00;2.42;;;13.20;99.90;;;;;;4819136;29;39042;-86
2022/08/06 00:50:43;;;;;;;4.65;2.00;;;13.10;99.90;;;;;;4824896;29;39684;-85
2022/08/06 00:53:09;;;;;;;5.15;1.95;;;13.10;99.90;;;;;;4838404;29;37140;-85
2022/08/06 00:55:35;;;;;;;3.97;1.77;;;13.10;99.90;;;;;;4840099;29;37337;-85
2022/08/06 00:58:06;;;;;;;3.55;1.83;;;13.10;99.90;;;;;;4825670;29;37907;-84
2022/08/06 01:00:33;;;;;;;5.15;1.67;;;13.00;99.90;;;;;;4833015;29;38830;-85
2022/08/06 01:02:59;;;;;;;3.22;1.58;;;13.00;99.90;;;;;;4814405;29;37646;-84
2022/08/06 01:05:26;;;;;;;5.18;1.80;;;13.00;99.90;;;;;;4817683;29;37907;-85
2022/08/06 01:07:53;;;;;;;5.45;1.50;;;13.00;99.90;;;;;;4839814;29;38806;-85
2022/08/06 01:10:22;;;;;;;6.05;1.92;;;13.00;99.90;;;;;;4829226;29;37843;-85
2022/08/06 01:12:51;;;;;;;4.13;1.60;;;13.00;99.90;;;;;;4842785;29;37348;-84
2022/08/06 01:15:17;;;;;;;5.35;1.90;;;13.00;99.90;;;;;;4826713;29;37609;-84
2022/08/06 01:18:02;;;;;;;3.05;1.50;;;13.10;99.90;;;;;;4844732;29;39241;-85
2022/08/06 01:20:58;;;;;;;5.60;1.80;;;13.00;99.90;;;;;;4843276;29;48529;-84
2022/08/06 01:23:43;;;;;;;5.93;1.95;;;13.00;99.90;;;;;;4817795;29;37106;-84
2022/08/06 01:26:27;;;;;;;5.53;1.70;;;13.00;99.90;;;;;;4824681;29;36923;-84
2022/08/06 01:29:04;;;;;;;4.93;2.00;;;13.00;99.90;;;;;;4837056;29;38594;-85
2022/08/06 01:31:41;;;;;;;5.78;2.13;;;13.00;99.90;;;;;;4822297;29;47782;-85
2022/08/06 01:34:18;;;;;;;3.97;1.45;;;13.00;99.90;;;;;;4843696;29;38257;-86
2022/08/06 01:36:51;;;;;;;4.00;1.75;;;13.00;99.90;;;;;;4840809;29;37107;-85
2022/08/06 01:39:21;;;;;;;2.92;1.60;;;13.00;99.90;;;;;;4857941;29;38950;-85
2022/08/06 01:41:51;;;;;;;3.58;1.52;;;13.00;99.90;;;;;;4859570;29;38725;-85
2022/08/06 01:44:20;;;;;;;3.67;1.50;;;13.00;99.90;;;;;;4839027;29;39320;-85
2022/08/06 01:46:49;;;;;;;3.60;1.50;;;13.00;99.90;;;;;;4855117;29;36528;-84
2022/08/06 01:49:20;;;;;;;5.05;1.77;;;12.90;99.90;;;;;;4834664;29;39817;-84
2022/08/06 01:51:49;;;;;;;8.07;1.80;;;12.90;99.90;;;;;;4832749;29;37576;-83
2022/08/06 01:54:18;;;;;;;5.38;1.83;;;12.90;99.90;;;;;;4857857;29;38190;-82
2022/08/06 01:56:49;;;;;;;3.30;1.95;;;12.90;99.90;;;;;;4846673;29;39612;-82
2022/08/06 01:59:18;;;;;;;3.65;1.58;;;12.90;99.90;;;;;;4846112;29;37673;-83
2022/08/06 02:01:49;;;;;;;4.85;1.85;;;12.90;99.90;;;;;;4846014;29;38027;-83
2022/08/06 02:04:17;;;;;;;3.67;1.70;;;12.80;99.90;;;;;;4845883;29;37809;-83
2022/08/06 02:06:46;;;;;;;3.88;1.90;;;12.80;99.90;;;;;;4864102;29;36834;-84
2022/08/06 02:09:16;;;;;;;4.95;1.70;;;12.80;99.90;;;;;;4849163;29;38804;-83
2022/08/06 02:11:46;;;;;;;1.83;1.20;;;12.80;99.90;;;;;;4857103;29;37972;-85
2022/08/06 02:14:14;;;;;;;4.63;1.65;;;12.80;99.90;;;;;;4850757;29;36285;-82
2022/08/06 02:16:42;;;;;;;5.93;1.50;;;12.80;99.90;;;;;;4860825;29;36637;-84
2022/08/06 02:19:13;;;;;;;2.55;1.50;;;12.80;99.90;;;;;;4869052;29;39616;-84
2022/08/06 02:21:42;;;;;;;3.38;1.40;;;12.80;99.90;;;;;;4844511;29;37661;-84
2022/08/06 02:24:09;;;;;;;4.90;1.52;;;12.70;99.90;;;;;;4858195;29;37431;-85
2022/08/06 02:26:40;;;;;;;4.38;1.60;;;12.70;99.90;;;;;;4849483;29;36015;-83
2022/08/06 02:29:08;;;;;;;4.40;1.42;;;12.70;99.90;;;;;;4847272;29;37650;-84
2022/08/06 02:31:34;;;;;;;2.75;1.20;;;12.60;99.90;;;;;;4856391;29;37603;-83
2022/08/06 02:34:01;;;;;;;2.85;1.33;;;12.60;99.90;;;;;;4850799;29;37755;-81
2022/08/06 02:36:39;;;;;;;2.05;1.33;;;12.60;99.90;;;;;;4869816;29;46572;-81
2022/08/06 02:39:20;;;;;;;5.25;1.55;;;12.70;99.90;;;;;;4854641;29;38287;-83
2022/08/06 02:42:15;;;;;;;3.03;1.30;;;12.70;99.90;;;;;;4855055;29;38030;-81
2022/08/06 02:45:06;;;;;;;3.15;1.50;;;12.70;99.90;;;;;;4862562;29;48837;-82
2022/08/06 02:48:12;;;;;;;4.18;1.27;;;12.60;99.90;;;;;;4857112;29;48206;-81
2022/08/06 02:50:42;;;;;;;1.60;1.27;;;12.60;99.90;;;;;;4849518;29;46916;-81
2022/08/06 02:53:15;;;;;;;3.38;1.60;;;12.60;99.90;;;;;;4872695;29;40310;-81
2022/08/06 02:55:45;;;;;;;4.95;1.40;;;12.60;99.90;;;;;;4858643;29;37212;-81
2022/08/06 02:58:17;;;;;;;3.25;1.60;;;12.50;99.90;;;;;;4854862;29;36864;-82
2022/08/06 03:00:46;;;;;;;3.70;2.05;;;12.50;99.90;;;;;;4858248;29;40722;-83
2022/08/06 03:03:15;;;;;;;2.78;1.58;;;12.50;99.90;;;;;;4869467;29;38920;-82
2022/08/06 03:05:44;;;;;;;3.35;1.58;;;12.50;99.90;;;;;;4873037;29;38579;-81
2022/08/06 03:08:15;;;;;;;3.30;1.40;;;12.50;99.90;;;;;;4855234;29;36380;-82
2022/08/06 03:10:44;;;;;;;3.47;1.40;;;12.40;99.90;;;;;;4861436;29;37598;-81
2022/08/06 03:13:11;;;;;;;3.92;1.00;;;12.40;99.90;;;;;;4868257;29;37424;-82
2022/08/06 03:15:38;;;;;;;4.38;1.60;;;12.40;99.90;;;;;;4861607;29;36614;-80
2022/08/06 03:18:06;;;;;;;3.42;1.25;;;12.40;99.90;;;;;;4876222;29;38230;-81
2022/08/06 03:20:34;;;;;;;4.93;1.70;;;12.30;99.90;;;;;;4858745;29;38540;-80
2022/08/06 03:23:06;;;;;;;3.75;1.35;;;12.30;99.90;;;;;;4878738;29;40906;-81
2022/08/06 03:25:33;;;;;;;1.92;1.27;;;12.40;99.90;;;;;;4861385;29;46624;-81
2022/08/06 03:28:00;;;;;;;3.80;1.50;;;12.30;99.90;;;;;;4882071;29;37828;-81
2022/08/06 03:30:27;;;;;;;4.20;1.67;;;12.30;99.90;;;;;;4864648;29;37657;-81
2022/08/06 03:32:54;;;;;;;3.15;1.50;;;12.30;99.90;;;;;;4868232;29;38408;-79
2022/08/06 03:35:20;;;;;;;3.55;1.70;;;12.30;99.90;;;;;;4871839;29;39229;-80
2022/08/06 03:37:51;;;;;;;4.75;1.40;;;12.30;99.90;;;;;;4871155;29;36209;-80
2022/08/06 03:40:18;;;;;;;2.95;1.58;;;12.30;99.90;;;;;;4871269;29;39650;-80
2022/08/06 03:42:45;;;;;;;5.05;1.65;;;12.30;99.90;;;;;;4871491;29;36331;-80
2022/08/06 03:45:11;;;;;;;1.83;1.40;;;12.30;99.90;;;;;;4881117;29;39430;-81
2022/08/06 03:47:44;;;;;;;2.05;1.17;;;12.30;99.90;;;;;;4866044;29;36620;-80
2022/08/06 03:50:14;;;;;;;2.80;1.30;;;12.30;99.90;;;;;;4866001;29;38321;-80
2022/08/06 03:52:46;;;;;;;4.97;1.50;;;12.30;99.90;;;;;;4861439;29;38911;-81
2022/08/06 03:55:25;;;;;;;3.33;1.38;;;12.30;99.90;;;;;;4863393;29;37938;-80
2022/08/06 03:57:53;;;;;;;3.42;1.20;;;12.20;99.90;;;;;;4882720;29;36151;-80
2022/08/06 04:00:23;;;;;;;2.70;1.10;;;12.20;99.90;;;;;;4882468;29;38205;-80
2022/08/06 04:02:53;;;;;;;5.72;1.63;;;12.20;99.90;;;;;;4868440;29;38070;-80
2022/08/06 04:05:23;;;;;;;1.77;1.20;;;12.10;99.90;;;;;;4871426;29;37696;-77
2022/08/06 04:07:52;;;;;;;2.25;0.85;;;12.10;99.90;;;;;;4872647;29;36413;-80
2022/08/06 04:10:20;;;;;;;3.80;1.20;;;12.10;99.90;;;;;;4873562;29;40310;-80
2022/08/06 04:12:51;;;;;;;2.45;1.17;;;12.10;99.90;;;;;;4869421;29;37495;-80
2022/08/06 04:15:26;;;;;;;2.65;1.35;;;12.10;99.90;;;;;;4873401;29;39942;-79
2022/08/06 04:17:55;;;;;;;3.08;1.50;;;12.10;99.90;;;;;;4873883;29;38344;-80
2022/08/06 04:20:25;;;;;;;3.25;1.50;;;12.10;99.90;;;;;;4873836;29;38717;-80
2022/08/06 04:22:52;;;;;;;2.25;1.30;;;12.10;99.90;;;;;;4873377;29;37520;-80
2022/08/06 04:25:20;;;;;;;2.65;1.20;;;12.10;99.90;;;;;;4876297;29;37822;-79
2022/08/06 04:27:47;;;;;;;5.15;1.70;;;12.10;99.90;;;;;;4888702;29;36639;-79
2022/08/06 04:30:28;;;;;;;3.13;1.25;;;12.10;99.90;;;;;;4870740;29;38763;-79
2022/08/06 04:32:55;;;;;;;3.42;1.60;;;12.10;99.90;;;;;;4876085;29;39377;-79
2022/08/06 04:35:22;;;;;;;3.75;1.40;;;12.20;99.90;;;;;;4860183;29;38197;-80
2022/08/06 04:37:49;;;;;;;2.67;1.30;;;12.20;99.90;;;;;;4865131;29;35758;-80
2022/08/06 04:40:15;;;;;;;2.28;1.23;;;12.30;99.90;;;;;;4877224;29;38466;-80
2022/08/06 04:42:42;;;;;;;2.75;1.20;;;12.30;99.90;;;;;;4858816;29;38207;-81
2022/08/06 04:45:09;;;;;;;1.75;1.40;;;12.30;99.90;;;;;;4857270;29;36861;-80
2022/08/06 04:47:36;;;;;;;1.80;1.40;;;12.30;99.90;;;;;;4855506;29;35948;-80
2022/08/06 04:50:03;;;;;;;1.65;1.02;;;12.30;99.90;;;;;;4858069;29;36741;-80
2022/08/06 04:52:29;;;;;;;3.08;1.35;;;12.30;99.90;;;;;;4877515;29;48622;-80
2022/08/06 04:54:56;;;;;;;2.80;1.48;;;12.30;99.90;;;;;;4873671;29;38767;-80
2022/08/06 04:57:22;;;;;;;3.38;1.30;;;12.30;99.90;;;;;;4856002;29;36246;-80
2022/08/06 04:59:48;;;;;;;2.03;1.27;;;12.30;99.90;;;;;;4865172;29;41496;-78
2022/08/06 05:02:14;;;;;;;3.60;1.30;;;12.40;99.90;;;;;;4857062;29;37979;-78
2022/08/06 05:04:42;;;;;;;3.15;1.42;;;12.40;99.90;;;;;;4858030;29;37307;-79
2022/08/06 05:07:11;;;;;;;1.52;1.40;;;12.40;99.90;;;;;;4855887;29;36125;-80
2022/08/06 05:09:38;;;;;;;2.95;1.85;;;12.40;99.90;;;;;;4858469;29;36966;-80
2022/08/06 05:12:11;;;;;;;1.38;0.82;;;12.50;99.90;;;;;;4848542;29;39735;-77
2022/08/06 05:14:54;;;;;;;3.50;2.00;;;12.70;99.90;;;;;;4863289;29;38389;-82
2022/08/06 05:17:23;;;;;;;3.30;1.88;;;12.80;99.90;;;;;;4839527;29;36135;-79
2022/08/06 05:20:01;;;;;;;2.58;2.08;;;12.80;99.90;;;;;;4840084;29;38972;-83
2022/08/06 05:22:29;;;;;;;5.22;2.58;;;12.80;99.90;;;;;;4845414;29;38629;-82
2022/08/06 05:24:55;;;;;;;3.05;2.00;;;12.80;99.90;;;;;;4865438;29;38441;-82
2022/08/06 05:27:22;;;;;;;4.28;1.60;;;12.80;99.90;;;;;;4863186;29;37717;-84
2022/08/06 05:29:48;;;;;;;2.25;1.88;;;12.90;99.90;;;;;;4851153;29;38366;-83
2022/08/06 05:32:14;;;;;;;2.72;1.35;;;12.90;99.90;;;;;;4843997;29;38737;-82
2022/08/06 05:34:40;;;;;;;1.75;1.23;;;13.00;99.90;;;;;;4865333;29;36643;-83
2022/08/06 05:37:07;;;;;;;3.55;1.40;;;13.00;99.90;;;;;;4847213;29;36379;-84
2022/08/06 05:39:33;;;;;;;1.92;1.23;;;13.00;99.90;;;;;;4864144;29;40166;-83
2022/08/06 05:41:59;;;;;;;1.60;1.10;;;13.10;99.90;;;;;;4856935;29;39919;-84
2022/08/06 05:44:25;;;;;;;2.42;1.08;;;13.10;99.90;;;;;;4841065;29;36547;-84
2022/08/06 05:46:56;;;;;;;3.03;1.15;;;13.10;99.90;;;;;;4849075;29;35995;-82
2022/08/06 05:49:38;;;;;;;1.95;0.70;;;13.20;99.90;;;;;;4860921;29;38685;-84
2022/08/06 05:52:28;;;;;;;3.65;1.10;;;13.30;99.90;;;;;;4849761;29;38580;-83
2022/08/06 05:55:00;;;;;;;2.72;1.15;;;13.30;99.90;;;;;;4849463;29;38379;-85
2022/08/06 05:57:33;;;;;;;;;;;13.40;99.90;;;;;;4866992;29;38152;-83
2022/08/06 06:00:07;;;;;;;4.03;1.08;;;13.50;99.90;;;;;;4846189;29;38503;-84
2022/08/06 06:02:35;;;;;;;1.15;0.80;;;13.50;99.90;;;;;;4870054;29;47567;-85
2022/08/06 06:05:02;;;;;;;2.65;0.93;;;13.60;99.90;;;;;;4848681;29;37766;-84
2022/08/06 06:07:29;;;;;;;3.45;0.95;;;13.70;99.90;;;;;;4858786;29;36829;-83
2022/08/06 06:09:56;;;;;;;3.03;0.77;;;13.90;99.90;;;;;;4848497;29;38108;-85
2022/08/06 06:12:23;;;;;;;3.13;0.82;;;14.00;99.90;;;;;;4844108;29;38211;-84
2022/08/06 06:14:51;;;;;;;3.67;1.05;;;14.10;99.90;;;;;;4864233;29;37474;-84
2022/08/06 06:17:30;;;;;;;2.25;0.80;;;14.30;99.90;;;;;;4851964;29;37740;-86
2022/08/06 06:20:14;;;;;;;2.95;1.80;;;14.50;99.90;;;;;;4849909;29;38608;-86
2022/08/06 06:22:51;;;;;;;3.00;1.27;;;14.60;99.90;;;;;;4849504;29;47366;-86
2022/08/06 06:25:31;;;;;;;3.00;1.15;;;14.70;99.90;;;;;;4865078;29;38351;-84
2022/08/06 06:28:08;;;;;;;1.35;0.90;;;14.90;99.90;;;;;;4865944;29;36888;-85
2022/08/06 06:31:02;;;;;;;2.97;0.85;;;15.20;99.90;;;;;;4849572;29;47418;-84
2022/08/06 06:33:52;;;;;;;2.20;0.73;;;15.40;99.90;;;;;;4851914;29;47140;-85
2022/08/06 06:36:42;;;;;;;1.10;0.95;;;15.70;99.90;;;;;;4870404;29;38155;-84
2022/08/06 06:39:12;;;;;;;1.77;0.85;;;15.90;99.90;;;;;;4864313;29;37883;-81
2022/08/06 06:41:50;;;;;;;1.67;0.75;;;16.20;99.90;;;;;;4869729;29;38648;-81
2022/08/06 06:45:00;;;;;;;2.65;0.98;;;16.50;99.90;;;;;;4847487;29;37985;-80
2022/08/06 06:47:49;;;;;;;3.42;0.60;;;16.80;99.90;;;;;;4857764;29;38006;-79
2022/08/06 06:50:25;;;;;;;3.25;0.52;;;17.10;99.90;;;;;;4862228;29;37179;-79
2022/08/06 06:52:53;;;;;;;2.58;0.40;;;17.40;99.90;;;;;;4845759;29;37497;-79
2022/08/06 06:55:29;;;;;;;1.10;0.40;;;17.70;99.90;;;;;;4845679;29;37606;-80
2022/08/06 06:58:15;;;;;;;1.00;0.30;;;17.70;99.90;;;;;;4839281;29;37309;-78
2022/08/06 07:00:42;;;;;;;2.38;0.30;;;17.80;99.90;;;;;;4860699;29;47992;-79
2022/08/06 07:03:11;;;;;;;2.08;0.40;;;18.10;99.90;;;;;;4846153;29;38454;-78
2022/08/06 07:05:40;;;;;;;2.33;0.55;;;18.20;99.90;;;;;;4840594;29;39326;-79
2022/08/06 07:08:08;;;;;;;3.55;0.38;;;18.40;99.90;;;;;;4858371;29;38378;-77
2022/08/06 07:10:35;;;;;;;1.58;0.40;;;18.60;99.90;;;;;;4862832;29;36745;-82
2022/08/06 07:13:02;;;;;;;1.25;0.30;;;18.60;99.90;;;;;;4848320;29;38488;-76
2022/08/06 07:15:29;;;;;;;2.53;0.50;;;18.60;99.90;;;;;;4841147;29;38718;-77
2022/08/06 07:17:57;;;;;;;1.27;0.40;;;18.60;99.90;;;;;;4841289;29;39205;-81
2022/08/06 07:20:27;;;;;;;2.42;0.70;;;18.80;99.90;;;;;;4865228;29;37266;-79
2022/08/06 07:22:55;;;;;;;2.88;0.47;;;18.90;99.90;;;;;;4843297;29;35936;-81
2022/08/06 07:25:22;;;;;;;2.78;0.47;;;19.00;99.90;;;;;;4845226;29;38972;-80
2022/08/06 07:27:50;;;;;;;1.95;0.50;;;19.40;99.90;;;;;;4836249;29;37877;-81
2022/08/06 07:30:18;;;;;;;0.77;0.40;;;19.40;99.90;;;;;;4844346;29;35987;-79
2022/08/06 07:32:46;;;;;;;4.03;0.60;;;19.60;99.90;;;;;;4848588;29;37967;-81
2022/08/06 07:35:14;;;;;;;2.58;0.40;;;19.70;99.90;;;;;;4841236;29;37847;-80
2022/08/06 07:37:56;;;;;;;2.95;0.50;;;19.80;99.90;;;;;;4838816;29;37434;-78
2022/08/06 07:40:31;;;;;;;1.10;0.30;;;20.10;99.90;;;;;;4839529;29;36201;-80
2022/08/06 07:43:12;;;;;;;2.55;0.70;;;20.20;99.90;;;;;;4838123;29;39104;-80
2022/08/06 07:45:38;;;;;;;2.25;0.30;;;20.40;99.90;;;;;;4855822;29;48449;-80
2022/08/06 07:48:09;;;;;;;1.00;0.20;;;20.40;99.90;;;;;;4840071;29;37500;-78
2022/08/06 07:50:37;;;;;;;1.88;0.25;;;20.50;99.90;;;;;;4855913;29;37382;-80
2022/08/06 07:53:03;;;;;;;2.45;0.30;;;20.60;99.90;;;;;;4840484;29;40252;-81
2022/08/06 07:55:29;;;;;;;2.42;0.60;;;20.60;99.90;;;;;;4849098;29;38730;-80
2022/08/06 07:57:57;;;;;;;1.45;0.30;;;20.70;99.90;;;;;;4857144;29;38593;-82
2022/08/06 08:00:24;;;;;;;1.58;0.57;;;20.90;99.90;;;;;;4840561;29;36569;-77
2022/08/06 08:08:25;;;;;;;2.85;0.40;;;21.30;99.90;;;;;;4861146;29;38989;-81
2022/08/06 08:10:55;;;;;;;1.60;0.30;;;21.30;99.90;;;;;;4859512;29;37984;-81
2022/08/06 08:13:22;;;;;;;2.22;0.50;;;21.40;99.90;;;;;;4856205;29;42050;-80
2022/08/06 08:15:55;;;;;;;1.02;0.38;;;21.50;99.90;;;;;;4843900;29;37802;-80
2022/08/06 08:18:20;;;;;;;;;;;21.90;99.90;;;;;;4845860;29;37156;-80
2022/08/06 08:20:47;;;;;;;3.55;0.50;;;21.80;99.90;;;;;;4849251;29;39968;-83
2022/08/06 08:23:15;;;;;;;1.02;0.35;;;21.80;99.90;;;;;;4850320;29;40210;-85
2022/08/06 08:25:41;;;;;;;1.15;0.30;;;22.00;99.90;;;;;;4844302;29;40261;-83
2022/08/06 08:28:09;;;;;;;2.17;0.50;;;22.40;99.90;;;;;;4855848;29;37546;-81
2022/08/06 08:30:42;;;;;;;1.05;0.43;;;22.60;99.90;;;;;;4850647;29;36222;-84
2022/08/06 08:33:09;;;;;;;0.68;0.20;;;22.80;99.90;;;;;;4845397;29;38009;-81
2022/08/06 08:35:35;;;;;;;1.13;0.43;;;22.90;99.90;;;;;;4850087;29;40321;-82
2022/08/06 08:38:01;;;;;;;2.22;0.43;;;23.00;99.90;;;;;;4862912;29;38217;-80
2022/08/06 08:40:31;;;;;;;1.73;0.32;;;23.10;99.90;;;;;;4868259;29;37782;-84
2022/08/06 08:43:01;;;;;;;2.85;0.70;;;23.10;99.90;;;;;;4881554;29;40030;-78
2022/08/06 08:45:28;;;;;;;1.85;0.52;;;23.30;99.90;;;;;;4870434;29;48533;-78
2022/08/06 08:47:57;;;;;;;1.90;0.40;;;23.30;99.90;;;;;;4842415;29;38555;-79
2022/08/06 08:50:28;;;;;;;2.13;0.50;;;23.30;99.90;;;;;;4861420;29;38112;-79
2022/08/06 08:53:09;;;;;;;4.22;0.40;;;23.10;99.90;;;;;;4847792;29;37957;-82
2022/08/06 08:55:40;;;;;;;1.20;0.47;;;23.30;99.90;;;;;;4860820;29;47857;-82
2022/08/06 08:58:07;;;;;;;0.65;0.30;;;23.30;99.90;;;;;;4852120;29;36963;-83
2022/08/06 09:00:34;;;;;;;2.60;0.50;;;23.50;99.90;;;;;;4846018;29;36057;-85
2022/08/06 09:03:02;;;;;;;3.70;0.55;;;23.60;99.90;;;;;;4847098;29;38693;-83
2022/08/06 09:05:30;;;;;;;1.60;0.40;;;23.60;99.90;;;;;;4845951;29;47389;-82
2022/08/06 09:07:57;;;;;;;1.48;0.63;;;23.70;99.90;;;;;;4864222;29;38874;-83
2022/08/06 09:10:24;;;;;;;2.00;0.52;;;23.80;99.90;;;;;;4844830;29;38994;-83
2022/08/06 09:12:51;;;;;;;0.90;0.45;;;23.50;99.90;;;;;;4850781;29;37967;-82
2022/08/06 09:15:17;;;;;;;3.17;0.50;;;23.50;99.90;;;;;;4861613;29;38677;-79
2022/08/06 09:17:46;;;;;;;3.05;1.20;;;23.60;99.90;;;;;;4861679;29;39470;-82
2022/08/06 09:20:12;;;;;;;2.25;0.47;;;23.50;99.90;;;;;;4849278;29;37445;-80
2022/08/06 09:22:38;;;;;;;1.50;0.38;;;23.80;99.90;;;;;;4852339;29;37853;-82
2022/08/06 09:25:05;;;;;;;1.30;0.40;;;23.90;99.90;;;;;;4870278;29;38862;-82
2022/08/06 09:27:37;;;;;;;1.75;0.60;;;24.10;99.90;;;;;;4851010;29;47739;-86
2022/08/06 09:30:07;;;;;;;0.57;0.40;;;24.20;99.90;;;;;;4847104;29;36583;-81
2022/08/06 09:32:38;;;;;;;1.88;0.50;;;24.30;99.90;;;;;;4862035;29;38610;-77
2022/08/06 09:35:22;;;;;;;0.60;0.35;;;24.20;99.90;;;;;;4865377;29;38789;-76
2022/08/06 09:37:50;;;;;;;1.23;0.20;;;24.30;99.90;;;;;;4867622;29;36691;-76
2022/08/06 09:40:18;;;;;;;0.90;0.25;;;24.40;99.90;;;;;;4851170;29;36636;-78
2022/08/06 09:42:50;;;;;;;1.25;0.30;;;24.30;99.90;;;;;;4862828;29;39987;-76
2022/08/06 09:45:18;;;;;;;2.17;0.50;;;24.50;99.90;;;;;;4867737;29;39266;-76
2022/08/06 09:47:46;;;;;;;1.45;0.40;;;24.40;99.90;;;;;;4852950;29;36976;-77
2022/08/06 09:50:12;;;;;;;1.60;0.38;;;24.50;99.90;;;;;;4866305;29;36776;-77
2022/08/06 09:52:38;;;;;;;2.20;0.20;;;24.40;99.90;;;;;;4866625;29;38560;-78
2022/08/06 09:55:05;;;;;;;0.85;0.20;;;24.60;99.90;;;;;;4862439;29;38314;-78
2022/08/06 09:57:45;;;;;;;1.90;0.35;;;24.80;99.90;;;;;;4860667;29;38943;-77
2022/08/06 10:00:26;;;;;;;0.65;0.20;;;24.90;99.90;;;;;;4861566;29;36428;-78
2022/08/06 10:03:06;;;;;;;1.00;0.40;;;24.20;99.90;;;;;;4854450;29;37606;-79
2022/08/06 10:05:33;;;;;;;0.70;0.30;;;24.40;99.90;;;;;;4871640;29;49040;-78
2022/08/06 10:08:17;;;;;;;0.55;0.17;;;24.30;99.90;;;;;;4851477;29;37640;-78
2022/08/06 10:10:51;;;;;;;3.60;0.50;;;24.50;99.90;;;;;;4864287;29;48588;-79
2022/08/06 10:13:18;;;;;;;1.90;0.30;;;24.60;99.90;;;;;;4855379;29;37872;-79
2022/08/06 10:15:46;;;;;;;0.50;0.30;;;24.70;99.90;;;;;;4842562;29;38272;-79
2022/08/06 10:18:41;;;;;;;0.80;0.30;;;24.50;99.90;;;;;;4866733;29;39701;-78
2022/08/06 10:21:15;;;;;;;0.80;0.30;;;24.60;99.90;;;;;;4849778;29;36454;-78
2022/08/06 10:23:45;;;;;;;0.57;0.40;;;24.60;99.90;;;;;;4851803;29;41801;-77
2022/08/06 10:26:12;;;;;;;0.73;0.50;;;24.90;99.90;;;;;;4862322;29;38290;-77
2022/08/06 10:28:41;;;;;;;0.77;0.30;;;25.00;99.90;;;;;;4846396;29;37389;-78
2022/08/06 10:31:11;;;;;;;2.53;0.50;;;25.10;99.90;;;;;;4866050;29;37035;-78
2022/08/06 10:33:57;;;;;;;1.30;0.30;;;25.30;99.90;;;;;;4864357;29;40099;-77
2022/08/06 10:36:38;;;;;;;0.65;0.50;;;25.20;99.90;;;;;;4850747;29;37852;-77
2022/08/06 10:39:06;;;;;;;2.53;0.50;;;25.20;99.90;;;;;;4850450;29;38500;-77
2022/08/06 10:41:34;;;;;;;0.50;0.30;;;25.50;99.90;;;;;;4850855;29;39157;-78
2022/08/06 10:44:02;;;;;;;2.63;0.50;;;25.40;99.90;;;;;;4865025;29;38994;-78
2022/08/06 10:46:29;;;;;;;1.30;0.60;;;25.40;99.90;;;;;;4859071;29;47026;-76
2022/08/06 10:48:56;;;;;;;0.52;0.40;;;25.20;99.90;;;;;;4850105;29;37145;-77
2022/08/06 10:51:23;;;;;;;0.98;0.45;;;25.00;99.90;;;;;;4868934;29;37336;-79
2022/08/06 10:53:49;;;;;;;0.93;0.38;;;24.50;99.90;;;;;;4868201;29;38895;-77
2022/08/06 10:56:17;;;;;;;1.70;0.60;;;24.10;99.90;;;;;;4859531;29;39086;-78
2022/08/06 10:58:44;;;;;;;1.27;0.50;;;24.10;99.90;;;;;;4842368;29;37828;-78
2022/08/06 11:01:16;;;;;;;10.38;1.27;;;24.60;99.90;;;;;;4851991;29;37361;-82
2022/08/06 11:03:54;;;;;;;;;;;24.70;99.90;;;;;;4849208;29;38091;-78
2022/08/06 11:06:35;;;;;;;0.70;0.45;;;24.60;99.90;;;;;;4856478;29;37461;-76
2022/08/06 11:09:20;;;;;;;0.98;0.40;;;25.00;99.90;;;;;;4859724;29;38238;-78
2022/08/06 11:12:18;;;;;;;0.55;0.43;;;25.30;99.90;;;;;;4866295;29;36890;-77
2022/08/06 11:14:45;;;;;;;2.25;0.60;;;25.50;99.90;;;;;;4827188;29;47224;-78
2022/08/06 11:17:12;;;;;;;3.33;0.80;;;25.20;99.90;;;;;;4863166;29;39822;-79
2022/08/06 11:19:46;;;;;;;1.17;0.40;;;24.90;99.90;;;;;;4869576;29;39131;-79
2022/08/06 11:22:31;;;;;;;2.72;0.68;;;24.80;99.90;;;;;;4860970;29;37986;-78
2022/08/06 11:24:58;;;;;;;1.95;0.70;;;24.60;99.90;;;;;;4849979;29;37776;-78
2022/08/06 11:27:49;;;;;;;1.27;0.50;;;24.20;99.90;;;;;;4869984;29;39141;-80
2022/08/06 11:30:16;;;;;;;0.50;0.35;;;23.80;99.90;;;;;;4846280;29;37331;-78
2022/08/06 11:32:46;;;;;;;0.88;0.40;;;23.50;99.90;;;;;;4864088;29;37501;-78
2022/08/06 11:35:34;;;;;;;0.88;0.40;;;23.60;99.90;;;;;;4854424;29;39178;-78
2022/08/06 11:38:05;;;;;;;1.58;0.43;;;23.70;99.90;;;;;;4856113;29;38064;-78
2022/08/06 11:40:58;;;;;;;0.80;0.50;;;23.60;99.90;;;;;;4860961;29;46830;-78
2022/08/06 11:43:52;;;;;;;1.90;0.70;;;24.00;99.90;;;;;;4872308;29;36740;-76
2022/08/06 11:46:18;;;;;;;1.05;0.60;;;24.90;99.90;;;;;;4844861;29;38757;-79
2022/08/06 11:49:10;;;;;;;1.50;0.40;;;25.50;99.90;;;;;;4845447;29;37826;-77
2022/08/06 11:51:46;;;;;;;3.03;0.60;;;25.00;99.90;;;;;;4854960;29;47238;-77
2022/08/06 11:54:18;;;;;;;2.40;0.50;;;24.30;99.90;;;;;;4845395;29;36233;-77
2022/08/06 11:57:09;;;;;;;;;;;23.50;99.90;;;;;;4873367;29;39514;-77
2022/08/06 11:59:43;;;;;;;2.35;0.60;;;23.00;99.90;;;;;;4862752;29;47248;-77
2022/08/06 12:02:12;;;;;;;1.58;0.40;;;23.20;99.90;;;;;;4869276;29;38535;-78
2022/08/06 12:04:44;;;;;;;2.35;0.40;;;24.10;99.90;;;;;;4850577;29;36125;-78
2022/08/06 12:07:18;;;;;;;0.85;0.40;;;24.30;99.90;;;;;;4852309;29;37553;-77
2022/08/06 12:10:05;;;;;;;0.98;0.35;;;23.90;99.90;;;;;;5056155;27;21405;-76
2022/08/06 12:12:48;;;;;;;2.47;0.30;;;24.00;99.90;;;;;;5056411;28;46937;-76
2022/08/06 12:15:21;;;;;;;1.85;0.43;;;24.30;99.90;;;;;;5070195;27;38779;-76
2022/08/06 12:17:54;;;;;;;1.05;0.40;;;24.10;99.90;;;;;;5063033;28;39672;-76
2022/08/06 12:20:33;;;;;;;2.20;0.45;;;24.50;99.90;;;;;;5045750;28;38812;-78
2022/08/06 12:23:07;;;;;;;1.75;0.45;;;24.80;99.90;;;;;;5063325;27;38411;-75
2022/08/06 12:25:35;;;;;;;1.13;0.50;;;25.00;99.90;;;;;;5041019;28;47802;-76
2022/08/06 12:28:01;;;;;;;3.42;0.52;;;24.90;99.90;;;;;;5046253;28;40616;-75
2022/08/06 12:30:50;;;;;;;0.75;0.30;;;24.30;99.90;;;;;;5041303;28;47679;-77
2022/08/06 12:33:17;;;;;;;0.30;0.20;;;23.80;99.90;;;;;;5080750;27;38866;-77
2022/08/06 12:35:54;;;;;;;1.30;0.40;;;24.00;99.90;;;;;;5045809;28;36850;-75
2022/08/06 12:38:21;;;;;;;2.80;0.60;;;24.30;99.90;;;;;;5079910;27;40639;-78
2022/08/06 12:40:55;;;;;;;0.75;0.60;;;23.80;99.90;;;;;;5051824;28;37669;-78
2022/08/06 12:43:21;;;;;;;1.40;0.75;;;23.70;99.90;;;;;;5042918;28;38529;-75
2022/08/06 12:45:55;;;;;;;1.50;0.65;;;24.20;99.90;;;;;;5053000;28;37175;-75
2022/08/06 12:48:21;;;;;;;1.75;0.60;;;24.50;99.90;;;;;;5045073;28;41322;-76
2022/08/06 12:50:47;;;;;;;1.33;0.70;;;24.80;99.90;;;;;;5046754;28;38408;-79
2022/08/06 12:53:16;;;;;;;0.77;0.50;;;25.00;99.90;;;;;;5056009;28;37795;-75
2022/08/06 12:55:50;;;;;;;1.77;0.60;;;24.70;99.90;;;;;;5063075;27;37030;-76
2022/08/06 12:58:22;;;;;;;1.17;0.68;;;24.30;99.90;;;;;;5065324;27;38302;-76
2022/08/06 13:00:53;;;;;;;2.25;0.60;;;24.20;99.90;;;;;;5060160;28;38739;-76
2022/08/06 13:03:22;;;;;;;1.33;0.60;;;24.40;99.90;;;;;;5061622;27;37541;-76
2022/08/06 13:05:49;;;;;;;1.98;0.70;;;24.40;99.90;;;;;;5059887;28;36867;-75
2022/08/06 13:08:16;;;;;;;1.00;0.60;;;24.60;99.90;;;;;;5049532;28;39292;-76
2022/08/06 13:10:49;;;;;;;0.80;0.50;;;24.70;99.90;;;;;;5097049;27;38386;-75
2022/08/06 13:13:16;;;;;;;2.42;0.80;;;24.50;99.90;;;;;;5061000;28;37229;-75
2022/08/06 13:15:58;;;;;;;1.45;0.55;;;24.50;99.90;;;;;;5059203;27;38047;-75